Terminal Aerodrome Forecast
Issued by NWS Albuquerque, NM

Home | Current Version | Previous Version | Text Only | Print | Product List | Glossary On
Versions: 1 2 3 4 5 6 7 8 9 10 11 12 13 14 15
191
FTUS45 KABQ 251733
TAFABQ
TAF
KABQ 251733Z 2518/2618 VRB06KT P6SM FEW090 SCT150
     FM252100 15010KT P6SM VCTS BKN090CB BKN130
      TEMPO 2521/2601 VRB18G28KT
     FM260100 10012KT P6SM VCSH BKN090 OVC130
     FM260500 03010KT P6SM BKN120
     FM261500 VRB06KT P6SM SCT150=

USA.gov is the U.S. government's official web portal to all federal, state and local government web resources and services.